sensor_id;sensor_type;location;lat;lon;timestamp;pressure;altitude;pressure_sealevel;temperature;humidity
9740;BME280;4909;42.680;26.324;2023-10-09T00:02:08;98965.91;;;19.21;61.23
9740;BME280;4909;42.680;26.324;2023-10-09T00:04:36;98971.50;;;19.18;60.90
9740;BME280;4909;42.680;26.324;2023-10-09T00:07:04;98927.66;;;19.05;61.31
9740;BME280;4909;42.680;26.324;2023-10-09T00:09:34;98928.69;;;19.15;58.52
9740;BME280;4909;42.680;26.324;2023-10-09T00:12:15;98967.78;;;19.32;60.65
9740;BME280;4909;42.680;26.324;2023-10-09T00:14:48;98966.59;;;19.36;60.43
9740;BME280;4909;42.680;26.324;2023-10-09T00:17:19;98961.88;;;18.66;59.06
9740;BME280;4909;42.680;26.324;2023-10-09T00:19:48;98989.41;;;18.32;62.08
9740;BME280;4909;42.680;26.324;2023-10-09T00:22:17;98971.91;;;18.14;61.24
9740;BME280;4909;42.680;26.324;2023-10-09T00:24:54;98988.22;;;18.36;62.63
9740;BME280;4909;42.680;26.324;2023-10-09T00:27:51;98991.88;;;18.22;62.87
9740;BME280;4909;42.680;26.324;2023-10-09T00:30:19;99002.00;;;18.19;63.34
9740;BME280;4909;42.680;26.324;2023-10-09T00:32:47;99009.91;;;17.95;59.92
9740;BME280;4909;42.680;26.324;2023-10-09T00:35:25;99024.94;;;17.98;60.07
9740;BME280;4909;42.680;26.324;2023-10-09T00:38:12;99033.03;;;18.10;60.76
9740;BME280;4909;42.680;26.324;2023-10-09T00:40:48;99027.22;;;18.16;61.01
9740;BME280;4909;42.680;26.324;2023-10-09T00:43:24;99033.28;;;18.20;63.24
9740;BME280;4909;42.680;26.324;2023-10-09T00:45:54;99035.94;;;18.33;61.68
9740;BME280;4909;42.680;26.324;2023-10-09T00:48:21;99027.34;;;18.40;60.00
9740;BME280;4909;42.680;26.324;2023-10-09T00:50:57;99044.47;;;18.77;62.71
9740;BME280;4909;42.680;26.324;2023-10-09T00:53:26;99040.91;;;18.77;59.54
9740;BME280;4909;42.680;26.324;2023-10-09T00:55:59;99047.00;;;19.04;57.72
9740;BME280;4909;42.680;26.324;2023-10-09T00:58:38;99047.69;;;18.70;55.52
9740;BME280;4909;42.680;26.324;2023-10-09T01:01:05;99052.72;;;18.23;55.58
9740;BME280;4909;42.680;26.324;2023-10-09T01:03:41;99063.44;;;18.11;55.85
9740;BME280;4909;42.680;26.324;2023-10-09T01:06:10;99062.28;;;18.28;55.79
9740;BME280;4909;42.680;26.324;2023-10-09T01:08:46;99050.28;;;18.58;59.79
9740;BME280;4909;42.680;26.324;2023-10-09T01:11:22;99053.38;;;18.52;55.34
9740;BME280;4909;42.680;26.324;2023-10-09T01:13:56;99068.41;;;18.42;51.35
9740;BME280;4909;42.680;26.324;2023-10-09T01:16:38;99084.00;;;18.37;56.93
9740;BME280;4909;42.680;26.324;2023-10-09T01:19:06;99087.09;;;18.18;55.02
9740;BME280;4909;42.680;26.324;2023-10-09T01:21:38;99073.28;;;17.98;58.20
9740;BME280;4909;42.680;26.324;2023-10-09T01:24:07;99045.63;;;18.10;58.06
9740;BME280;4909;42.680;26.324;2023-10-09T01:26:36;99092.53;;;18.56;55.22
9740;BME280;4909;42.680;26.324;2023-10-09T01:29:13;99093.88;;;18.24;53.91
9740;BME280;4909;42.680;26.324;2023-10-09T01:31:45;99070.59;;;17.98;47.93
9740;BME280;4909;42.680;26.324;2023-10-09T01:34:18;99111.34;;;18.04;50.82
9740;BME280;4909;42.680;26.324;2023-10-09T01:36:50;99112.63;;;17.99;53.25
9740;BME280;4909;42.680;26.324;2023-10-09T01:39:22;99109.13;;;17.84;49.13
9740;BME280;4909;42.680;26.324;2023-10-09T01:41:52;99072.25;;;17.73;53.90
9740;BME280;4909;42.680;26.324;2023-10-09T01:44:25;99098.25;;;18.12;57.82
9740;BME280;4909;42.680;26.324;2023-10-09T01:46:54;99074.94;;;17.73;54.48
9740;BME280;4909;42.680;26.324;2023-10-09T01:49:23;99108.31;;;17.96;49.48
9740;BME280;4909;42.680;26.324;2023-10-09T01:51:56;99110.75;;;17.87;54.05
9740;BME280;4909;42.680;26.324;2023-10-09T01:54:28;99108.97;;;17.73;48.81
9740;BME280;4909;42.680;26.324;2023-10-09T01:57:02;99110.16;;;17.55;47.56
9740;BME280;4909;42.680;26.324;2023-10-09T01:59:32;99124.44;;;17.55;46.68
9740;BME280;4909;42.680;26.324;2023-10-09T02:02:03;99128.72;;;17.31;48.30
9740;BME280;4909;42.680;26.324;2023-10-09T02:04:39;99137.53;;;17.19;46.77
9740;BME280;4909;42.680;26.324;2023-10-09T02:07:06;99132.16;;;17.33;47.79
9740;BME280;4909;42.680;26.324;2023-10-09T02:09:35;99102.09;;;17.14;47.54
9740;BME280;4909;42.680;26.324;2023-10-09T02:12:10;99135.31;;;17.25;48.29
9740;BME280;4909;42.680;26.324;2023-10-09T02:14:38;99140.50;;;17.43;49.83
9740;BME280;4909;42.680;26.324;2023-10-09T02:17:08;99133.28;;;17.29;49.78
9740;BME280;4909;42.680;26.324;2023-10-09T02:19:44;99141.63;;;17.24;47.92
9740;BME280;4909;42.680;26.324;2023-10-09T02:22:14;99139.91;;;17.23;51.00
9740;BME280;4909;42.680;26.324;2023-10-09T02:24:44;99153.91;;;17.14;46.72
9740;BME280;4909;42.680;26.324;2023-10-09T02:27:23;99159.28;;;17.14;47.15
9740;BME280;4909;42.680;26.324;2023-10-09T02:30:08;99153.22;;;17.39;49.52
9740;BME280;4909;42.680;26.324;2023-10-09T02:32:42;99153.50;;;17.34;46.25
9740;BME280;4909;42.680;26.324;2023-10-09T02:35:10;99170.16;;;17.54;50.83
9740;BME280;4909;42.680;26.324;2023-10-09T02:37:46;99152.06;;;17.43;45.36
9740;BME280;4909;42.680;26.324;2023-10-09T02:40:15;99179.47;;;17.48;49.25
9740;BME280;4909;42.680;26.324;2023-10-09T02:42:56;99172.66;;;17.57;48.57
9740;BME280;4909;42.680;26.324;2023-10-09T02:45:24;99180.16;;;17.66;47.25
9740;BME280;4909;42.680;26.324;2023-10-09T02:47:58;99175.22;;;17.58;49.27
9740;BME280;4909;42.680;26.324;2023-10-09T02:50:25;99186.66;;;17.76;48.41
9740;BME280;4909;42.680;26.324;2023-10-09T02:52:54;99180.78;;;17.84;43.83
9740;BME280;4909;42.680;26.324;2023-10-09T02:55:34;99195.72;;;17.88;48.49
9740;BME280;4909;42.680;26.324;2023-10-09T02:58:05;99158.72;;;17.78;47.22
9740;BME280;4909;42.680;26.324;2023-10-09T03:00:33;99184.41;;;17.83;47.71
9740;BME280;4909;42.680;26.324;2023-10-09T03:03:03;99188.44;;;17.90;46.67
9740;BME280;4909;42.680;26.324;2023-10-09T03:05:32;99155.00;;;17.53;46.30
9740;BME280;4909;42.680;26.324;2023-10-09T03:07:59;99201.41;;;17.55;44.88
9740;BME280;4909;42.680;26.324;2023-10-09T03:10:27;99214.38;;;17.76;49.52
9740;BME280;4909;42.680;26.324;2023-10-09T03:12:55;99211.94;;;17.86;49.18
9740;BME280;4909;42.680;26.324;2023-10-09T03:15:27;99226.00;;;18.04;49.14
9740;BME280;4909;42.680;26.324;2023-10-09T03:18:01;99212.72;;;18.15;48.17
9740;BME280;4909;42.680;26.324;2023-10-09T03:20:30;99220.44;;;18.46;46.67
9740;BME280;4909;42.680;26.324;2023-10-09T03:22:57;99196.78;;;18.39;47.20
9740;BME280;4909;42.680;26.324;2023-10-09T03:25:26;99223.09;;;18.34;44.87
9740;BME280;4909;42.680;26.324;2023-10-09T03:27:53;99194.25;;;17.96;49.18
9740;BME280;4909;42.680;26.324;2023-10-09T03:30:23;99204.75;;;17.58;41.39
9740;BME280;4909;42.680;26.324;2023-10-09T03:32:50;99213.75;;;17.57;49.80
9740;BME280;4909;42.680;26.324;2023-10-09T03:35:17;99226.44;;;17.55;45.55
9740;BME280;4909;42.680;26.324;2023-10-09T03:37:54;99232.66;;;17.56;50.69
9740;BME280;4909;42.680;26.324;2023-10-09T03:40:23;99243.00;;;17.48;44.80
9740;BME280;4909;42.680;26.324;2023-10-09T03:42:50;99247.34;;;17.36;46.23
9740;BME280;4909;42.680;26.324;2023-10-09T03:45:18;99250.50;;;17.43;47.97
9740;BME280;4909;42.680;26.324;2023-10-09T03:47:53;99239.66;;;17.44;49.40
9740;BME280;4909;42.680;26.324;2023-10-09T03:50:28;99244.28;;;17.42;45.32
9740;BME280;4909;42.680;26.324;2023-10-09T03:53:02;99243.50;;;17.12;42.63
9740;BME280;4909;42.680;26.324;2023-10-09T03:55:32;99242.81;;;17.08;47.32
9740;BME280;4909;42.680;26.324;2023-10-09T03:57:59;99246.75;;;17.17;45.94
9740;BME280;4909;42.680;26.324;2023-10-09T04:00:28;99247.13;;;17.25;44.33
9740;BME280;4909;42.680;26.324;2023-10-09T04:02:58;99241.69;;;17.26;44.58
9740;BME280;4909;42.680;26.324;2023-10-09T04:05:25;99227.59;;;17.09;49.42
9740;BME280;4909;42.680;26.324;2023-10-09T04:07:54;99245.69;;;17.48;48.20
9740;BME280;4909;42.680;26.324;2023-10-09T04:10:24;99244.00;;;17.32;47.01
9740;BME280;4909;42.680;26.324;2023-10-09T04:13:09;99256.84;;;17.42;47.32
9740;BME280;4909;42.680;26.324;2023-10-09T04:15:42;99259.03;;;17.49;48.76
9740;BME280;4909;42.680;26.324;2023-10-09T04:18:10;99264.00;;;17.27;47.75
9740;BME280;4909;42.680;26.324;2023-10-09T04:20:42;99268.38;;;17.14;43.87
9740;BME280;4909;42.680;26.324;2023-10-09T04:23:32;99270.41;;;17.24;48.57
9740;BME280;4909;42.680;26.324;2023-10-09T04:26:01;99247.53;;;17.33;47.63
9740;BME280;4909;42.680;26.324;2023-10-09T04:28:36;99278.69;;;17.50;45.81
9740;BME280;4909;42.680;26.324;2023-10-09T04:31:03;99278.31;;;17.70;48.53
9740;BME280;4909;42.680;26.324;2023-10-09T04:33:33;99280.13;;;17.55;44.06
9740;BME280;4909;42.680;26.324;2023-10-09T04:36:08;99271.13;;;17.42;47.54
9740;BME280;4909;42.680;26.324;2023-10-09T04:38:54;99288.78;;;17.60;46.97
9740;BME280;4909;42.680;26.324;2023-10-09T04:41:41;99280.81;;;17.59;43.72
9740;BME280;4909;42.680;26.324;2023-10-09T04:44:19;99287.03;;;17.88;43.61
9740;BME280;4909;42.680;26.324;2023-10-09T04:46:45;99279.06;;;18.00;44.44
9740;BME280;4909;42.680;26.324;2023-10-09T04:49:33;99288.41;;;18.21;43.26
9740;BME280;4909;42.680;26.324;2023-10-09T04:52:15;99274.66;;;17.99;45.56
9740;BME280;4909;42.680;26.324;2023-10-09T04:54:56;99288.94;;;18.00;42.13
9740;BME280;4909;42.680;26.324;2023-10-09T04:57:41;99303.25;;;18.00;44.95
9740;BME280;4909;42.680;26.324;2023-10-09T05:00:15;99306.28;;;18.08;45.09
9740;BME280;4909;42.680;26.324;2023-10-09T05:03:08;99310.00;;;18.20;43.16
9740;BME280;4909;42.680;26.324;2023-10-09T05:05:38;99297.28;;;18.09;43.67
9740;BME280;4909;42.680;26.324;2023-10-09T05:08:24;99284.72;;;17.96;43.17
9740;BME280;4909;42.680;26.324;2023-10-09T05:10:55;99309.72;;;18.24;43.09
9740;BME280;4909;42.680;26.324;2023-10-09T05:13:41;99322.81;;;18.43;44.83
9740;BME280;4909;42.680;26.324;2023-10-09T05:16:10;99320.38;;;18.53;43.33
9740;BME280;4909;42.680;26.324;2023-10-09T05:18:41;99306.78;;;18.42;44.27
9740;BME280;4909;42.680;26.324;2023-10-09T05:21:11;99343.53;;;18.55;39.18
9740;BME280;4909;42.680;26.324;2023-10-09T05:23:52;99342.50;;;18.44;43.38
9740;BME280;4909;42.680;26.324;2023-10-09T05:26:33;99350.97;;;18.23;41.10
9740;BME280;4909;42.680;26.324;2023-10-09T05:29:15;99354.09;;;18.44;42.74
9740;BME280;4909;42.680;26.324;2023-10-09T05:31:45;99346.03;;;18.44;41.30
9740;BME280;4909;42.680;26.324;2023-10-09T05:34:21;99353.03;;;18.61;41.48
9740;BME280;4909;42.680;26.324;2023-10-09T05:36:49;99338.81;;;18.59;41.67
9740;BME280;4909;42.680;26.324;2023-10-09T05:39:16;99357.34;;;18.63;41.68
9740;BME280;4909;42.680;26.324;2023-10-09T05:41:44;99367.84;;;18.81;44.32
9740;BME280;4909;42.680;26.324;2023-10-09T05:44:18;99367.63;;;18.84;42.15
9740;BME280;4909;42.680;26.324;2023-10-09T05:47:03;99358.31;;;18.62;41.11
9740;BME280;4909;42.680;26.324;2023-10-09T05:49:47;99377.25;;;18.88;45.48
9740;BME280;4909;42.680;26.324;2023-10-09T05:52:42;99383.03;;;18.82;39.48
9740;BME280;4909;42.680;26.324;2023-10-09T05:55:31;99394.94;;;18.78;43.44
9740;BME280;4909;42.680;26.324;2023-10-09T05:58:20;99404.19;;;18.59;41.24
9740;BME280;4909;42.680;26.324;2023-10-09T06:01:04;99408.63;;;18.60;43.98
9740;BME280;4909;42.680;26.324;2023-10-09T06:03:49;99388.13;;;18.17;40.22
9740;BME280;4909;42.680;26.324;2023-10-09T06:06:20;99417.09;;;17.98;39.26
9740;BME280;4909;42.680;26.324;2023-10-09T06:09:02;99433.75;;;17.74;40.65
9740;BME280;4909;42.680;26.324;2023-10-09T06:11:51;99421.44;;;17.56;44.05
9740;BME280;4909;42.680;26.324;2023-10-09T06:14:41;99434.50;;;17.32;41.96
9740;BME280;4909;42.680;26.324;2023-10-09T06:17:30;99442.59;;;17.47;44.23
9740;BME280;4909;42.680;26.324;2023-10-09T06:20:09;99423.59;;;17.65;43.45
9740;BME280;4909;42.680;26.324;2023-10-09T06:22:58;99457.56;;;17.80;40.03
9740;BME280;4909;42.680;26.324;2023-10-09T06:25:25;99454.47;;;17.72;42.42
9740;BME280;4909;42.680;26.324;2023-10-09T06:27:58;99454.63;;;18.13;45.43
9740;BME280;4909;42.680;26.324;2023-10-09T06:30:28;99472.50;;;17.70;39.46
9740;BME280;4909;42.680;26.324;2023-10-09T06:32:59;99470.78;;;17.54;45.41
9740;BME280;4909;42.680;26.324;2023-10-09T06:35:45;99475.03;;;18.02;45.91
9740;BME280;4909;42.680;26.324;2023-10-09T06:38:19;99482.50;;;17.83;43.40
9740;BME280;4909;42.680;26.324;2023-10-09T06:40:50;99450.38;;;17.81;43.93
9740;BME280;4909;42.680;26.324;2023-10-09T06:43:35;99481.16;;;17.75;45.25
9740;BME280;4909;42.680;26.324;2023-10-09T06:46:15;99474.75;;;17.62;44.27
9740;BME280;4909;42.680;26.324;2023-10-09T06:48:58;99490.13;;;18.04;47.54
9740;BME280;4909;42.680;26.324;2023-10-09T06:51:25;99488.03;;;18.38;44.98
9740;BME280;4909;42.680;26.324;2023-10-09T06:54:06;99492.94;;;18.59;45.65
9740;BME280;4909;42.680;26.324;2023-10-09T06:56:36;99498.69;;;18.82;44.97
9740;BME280;4909;42.680;26.324;2023-10-09T06:59:29;99508.66;;;18.51;42.20
9740;BME280;4909;42.680;26.324;2023-10-09T07:02:28;99503.28;;;18.51;42.48
9740;BME280;4909;42.680;26.324;2023-10-09T07:04:56;99476.50;;;18.36;39.40
9740;BME280;4909;42.680;26.324;2023-10-09T07:07:36;99511.03;;;17.99;37.00
9740;BME280;4909;42.680;26.324;2023-10-09T07:10:15;99517.72;;;18.06;44.18
9740;BME280;4909;42.680;26.324;2023-10-09T07:13:00;99516.13;;;18.04;40.59
9740;BME280;4909;42.680;26.324;2023-10-09T07:15:28;99517.63;;;17.48;37.38
9740;BME280;4909;42.680;26.324;2023-10-09T07:18:12;99523.75;;;17.20;39.67
9740;BME280;4909;42.680;26.324;2023-10-09T07:20:49;99518.72;;;17.14;41.40
9740;BME280;4909;42.680;26.324;2023-10-09T07:23:27;99485.13;;;16.44;39.10
9740;BME280;4909;42.680;26.324;2023-10-09T07:26:05;99522.59;;;16.29;39.33
9740;BME280;4909;42.680;26.324;2023-10-09T07:28:52;99527.88;;;16.13;38.03
9740;BME280;4909;42.680;26.324;2023-10-09T07:31:26;99526.69;;;16.36;40.17
9740;BME280;4909;42.680;26.324;2023-10-09T07:33:54;99527.31;;;16.41;39.59
9740;BME280;4909;42.680;26.324;2023-10-09T07:36:23;99532.28;;;16.31;37.91
9740;BME280;4909;42.680;26.324;2023-10-09T07:39:04;99530.97;;;16.05;38.99
9740;BME280;4909;42.680;26.324;2023-10-09T07:41:39;99529.81;;;15.94;38.21
9740;BME280;4909;42.680;26.324;2023-10-09T07:44:12;99526.63;;;16.03;39.90
9740;BME280;4909;42.680;26.324;2023-10-09T07:47:02;99535.47;;;16.05;36.84
9740;BME280;4909;42.680;26.324;2023-10-09T07:49:48;99526.22;;;16.28;42.45
9740;BME280;4909;42.680;26.324;2023-10-09T07:52:17;99537.72;;;16.30;37.47
9740;BME280;4909;42.680;26.324;2023-10-09T07:54:48;99546.31;;;16.52;39.21
9740;BME280;4909;42.680;26.324;2023-10-09T07:57:20;99543.19;;;16.44;37.91
9740;BME280;4909;42.680;26.324;2023-10-09T07:59:52;99537.19;;;16.23;37.12
9740;BME280;4909;42.680;26.324;2023-10-09T08:02:37;99535.03;;;16.30;38.29
9740;BME280;4909;42.680;26.324;2023-10-09T08:05:05;99536.28;;;16.40;38.68
9740;BME280;4909;42.680;26.324;2023-10-09T08:07:32;99542.16;;;16.46;36.12
9740;BME280;4909;42.680;26.324;2023-10-09T08:10:04;99540.78;;;16.39;37.44
9740;BME280;4909;42.680;26.324;2023-10-09T08:12:49;99544.63;;;16.84;43.15
9740;BME280;4909;42.680;26.324;2023-10-09T08:15:26;99543.66;;;17.01;36.04
9740;BME280;4909;42.680;26.324;2023-10-09T08:18:00;99513.63;;;16.63;36.83
9740;BME280;4909;42.680;26.324;2023-10-09T08:20:36;99553.69;;;16.48;35.95
9740;BME280;4909;42.680;26.324;2023-10-09T08:23:24;99528.25;;;16.56;44.87
9740;BME280;4909;42.680;26.324;2023-10-09T08:25:59;99555.75;;;16.92;37.31
9740;BME280;4909;42.680;26.324;2023-10-09T08:28:38;99552.47;;;16.54;37.52
9740;BME280;4909;42.680;26.324;2023-10-09T08:31:11;99547.19;;;16.52;36.24
9740;BME280;4909;42.680;26.324;2023-10-09T08:34:00;99524.66;;;16.24;37.95
9740;BME280;4909;42.680;26.324;2023-10-09T08:36:27;99539.94;;;16.55;38.76
9740;BME280;4909;42.680;26.324;2023-10-09T08:39:02;99543.81;;;16.49;38.18
9740;BME280;4909;42.680;26.324;2023-10-09T08:41:42;99540.03;;;16.53;36.07
9740;BME280;4909;42.680;26.324;2023-10-09T08:44:11;99546.75;;;16.44;35.71
9740;BME280;4909;42.680;26.324;2023-10-09T08:46:42;99535.25;;;16.42;36.01
9740;BME280;4909;42.680;26.324;2023-10-09T08:49:10;99536.41;;;16.54;35.64
9740;BME280;4909;42.680;26.324;2023-10-09T08:51:37;99555.44;;;16.32;34.33
9740;BME280;4909;42.680;26.324;2023-10-09T08:54:07;99559.59;;;16.38;34.57
9740;BME280;4909;42.680;26.324;2023-10-09T08:56:37;99544.66;;;16.34;33.65
9740;BME280;4909;42.680;26.324;2023-10-09T08:59:05;99555.22;;;16.52;40.30
9740;BME280;4909;42.680;26.324;2023-10-09T09:01:32;99551.59;;;16.53;35.69
9740;BME280;4909;42.680;26.324;2023-10-09T09:04:01;99561.34;;;16.39;32.26
9740;BME280;4909;42.680;26.324;2023-10-09T09:06:36;99557.97;;;16.35;31.84
9740;BME280;4909;42.680;26.324;2023-10-09T09:09:10;99563.19;;;16.54;34.33
9740;BME280;4909;42.680;26.324;2023-10-09T09:11:41;99537.91;;;16.42;32.55
9740;BME280;4909;42.680;26.324;2023-10-09T09:14:14;99551.41;;;16.41;32.70
9740;BME280;4909;42.680;26.324;2023-10-09T09:16:45;99559.53;;;16.72;36.25
9740;BME280;4909;42.680;26.324;2023-10-09T09:19:15;99560.84;;;16.81;36.18
9740;BME280;4909;42.680;26.324;2023-10-09T09:21:48;99562.44;;;17.16;37.21
9740;BME280;4909;42.680;26.324;2023-10-09T09:24:20;99548.25;;;16.99;36.83
9740;BME280;4909;42.680;26.324;2023-10-09T09:26:56;99529.03;;;17.06;38.59
9740;BME280;4909;42.680;26.324;2023-10-09T09:29:39;99554.66;;;17.12;33.42
9740;BME280;4909;42.680;26.324;2023-10-09T09:32:08;99560.69;;;17.00;34.41
9740;BME280;4909;42.680;26.324;2023-10-09T09:34:48;99536.03;;;16.77;31.84
9740;BME280;4909;42.680;26.324;2023-10-09T09:37:19;99553.09;;;16.92;32.50
9740;BME280;4909;42.680;26.324;2023-10-09T09:39:47;99559.59;;;17.04;31.83
9740;BME280;4909;42.680;26.324;2023-10-09T09:42:18;99561.91;;;16.78;32.02
9740;BME280;4909;42.680;26.324;2023-10-09T09:44:51;99521.59;;;16.64;38.87
9740;BME280;4909;42.680;26.324;2023-10-09T09:47:18;99540.78;;;17.35;34.67
9740;BME280;4909;42.680;26.324;2023-10-09T09:49:54;99526.16;;;17.86;40.42
9740;BME280;4909;42.680;26.324;2023-10-09T09:52:26;99527.34;;;17.66;33.88
9740;BME280;4909;42.680;26.324;2023-10-09T09:54:54;99528.13;;;18.12;34.95
9740;BME280;4909;42.680;26.324;2023-10-09T09:57:23;99522.16;;;18.07;30.47
9740;BME280;4909;42.680;26.324;2023-10-09T09:59:52;99514.91;;;18.23;30.39
9740;BME280;4909;42.680;26.324;2023-10-09T10:02:27;99511.03;;;18.13;30.23
9740;BME280;4909;42.680;26.324;2023-10-09T10:05:04;99497.81;;;18.39;34.13
9740;BME280;4909;42.680;26.324;2023-10-09T10:07:33;99452.50;;;18.47;34.82
9740;BME280;4909;42.680;26.324;2023-10-09T10:10:36;99459.25;;;18.95;36.17
9740;BME280;4909;42.680;26.324;2023-10-09T10:13:13;99432.88;;;18.87;28.87
9740;BME280;4909;42.680;26.324;2023-10-09T10:16:00;99439.97;;;18.74;29.79
9740;BME280;4909;42.680;26.324;2023-10-09T10:18:52;99460.88;;;18.97;33.39
9740;BME280;4909;42.680;26.324;2023-10-09T10:21:23;99456.75;;;19.19;34.89
9740;BME280;4909;42.680;26.324;2023-10-09T10:24:04;99449.16;;;19.25;33.61
9740;BME280;4909;42.680;26.324;2023-10-09T10:26:33;99463.84;;;19.07;30.50
9740;BME280;4909;42.680;26.324;2023-10-09T10:29:16;99441.72;;;19.29;36.16
9740;BME280;4909;42.680;26.324;2023-10-09T10:31:55;99437.59;;;19.10;30.56
9740;BME280;4909;42.680;26.324;2023-10-09T10:34:24;99449.38;;;19.62;31.24
9740;BME280;4909;42.680;26.324;2023-10-09T10:36:53;99424.81;;;19.53;32.88
9740;BME280;4909;42.680;26.324;2023-10-09T10:39:25;99438.81;;;19.59;30.39
9740;BME280;4909;42.680;26.324;2023-10-09T10:42:06;99427.19;;;19.58;32.75
9740;BME280;4909;42.680;26.324;2023-10-09T10:44:35;99426.19;;;19.46;31.65
9740;BME280;4909;42.680;26.324;2023-10-09T10:47:09;99417.28;;;19.46;29.66
9740;BME280;4909;42.680;26.324;2023-10-09T10:49:48;99404.50;;;18.55;30.14
9740;BME280;4909;42.680;26.324;2023-10-09T10:52:24;99405.06;;;18.46;33.41
9740;BME280;4909;42.680;26.324;2023-10-09T10:55:11;99409.06;;;18.81;36.28
9740;BME280;4909;42.680;26.324;2023-10-09T10:58:15;99391.47;;;18.76;32.10
9740;BME280;4909;42.680;26.324;2023-10-09T11:00:52;99408.34;;;18.92;30.86
9740;BME280;4909;42.680;26.324;2023-10-09T11:03:37;99393.88;;;19.07;33.81
9740;BME280;4909;42.680;26.324;2023-10-09T11:06:27;99359.09;;;19.04;31.68
9740;BME280;4909;42.680;26.324;2023-10-09T11:09:06;99340.63;;;19.12;35.00
9740;BME280;4909;42.680;26.324;2023-10-09T11:11:47;99376.75;;;19.47;34.57
9740;BME280;4909;42.680;26.324;2023-10-09T11:14:14;99372.34;;;19.07;33.84
9740;BME280;4909;42.680;26.324;2023-10-09T11:16:41;99368.25;;;19.01;32.34
9740;BME280;4909;42.680;26.324;2023-10-09T11:19:10;99371.13;;;18.72;33.60
9740;BME280;4909;42.680;26.324;2023-10-09T11:21:50;99353.53;;;18.39;32.68
9740;BME280;4909;42.680;26.324;2023-10-09T11:24:26;99346.00;;;18.03;36.75
9740;BME280;4909;42.680;26.324;2023-10-09T11:26:59;99358.00;;;18.12;33.41
9740;BME280;4909;42.680;26.324;2023-10-09T11:29:31;99324.13;;;18.09;32.84
9740;BME280;4909;42.680;26.324;2023-10-09T11:32:18;99332.56;;;18.03;35.60
9740;BME280;4909;42.680;26.324;2023-10-09T11:34:48;99337.88;;;18.05;36.12
9740;BME280;4909;42.680;26.324;2023-10-09T11:37:18;99336.69;;;18.23;33.32
9740;BME280;4909;42.680;26.324;2023-10-09T11:40:06;99328.09;;;17.90;33.43
9740;BME280;4909;42.680;26.324;2023-10-09T11:42:49;99307.47;;;17.76;35.38
9740;BME280;4909;42.680;26.324;2023-10-09T11:45:20;99319.16;;;17.89;35.13
9740;BME280;4909;42.680;26.324;2023-10-09T11:47:46;99317.81;;;17.82;34.62
9740;BME280;4909;42.680;26.324;2023-10-09T11:50:38;99311.50;;;17.83;36.13
9740;BME280;4909;42.680;26.324;2023-10-09T11:53:08;99306.59;;;17.90;39.61
9740;BME280;4909;42.680;26.324;2023-10-09T11:55:44;99272.25;;;17.95;35.28
9740;BME280;4909;42.680;26.324;2023-10-09T11:58:14;99284.97;;;18.46;39.72
9740;BME280;4909;42.680;26.324;2023-10-09T12:00:49;99290.00;;;18.38;33.88
9740;BME280;4909;42.680;26.324;2023-10-09T12:03:16;99256.66;;;18.41;36.94
9740;BME280;4909;42.680;26.324;2023-10-09T12:05:47;99275.13;;;18.59;37.91
9740;BME280;4909;42.680;26.324;2023-10-09T12:08:14;99251.53;;;18.50;34.00
9740;BME280;4909;42.680;26.324;2023-10-09T12:10:43;99272.53;;;18.31;33.54
9740;BME280;4909;42.680;26.324;2023-10-09T12:13:13;99267.06;;;18.33;38.25
9740;BME280;4909;42.680;26.324;2023-10-09T12:15:41;99270.97;;;18.41;34.01
9740;BME280;4909;42.680;26.324;2023-10-09T12:18:12;99278.69;;;18.33;33.46
9740;BME280;4909;42.680;26.324;2023-10-09T12:20:41;99269.72;;;18.20;34.65
9740;BME280;4909;42.680;26.324;2023-10-09T12:23:15;99252.00;;;18.30;34.60
9740;BME280;4909;42.680;26.324;2023-10-09T12:25:43;99258.88;;;18.07;34.02
9740;BME280;4909;42.680;26.324;2023-10-09T12:28:11;99236.03;;;17.73;35.09
9740;BME280;4909;42.680;26.324;2023-10-09T12:30:39;99247.94;;;17.69;35.08
9740;BME280;4909;42.680;26.324;2023-10-09T12:33:06;99240.72;;;17.42;35.27
9740;BME280;4909;42.680;26.324;2023-10-09T12:35:36;99234.28;;;17.30;35.75
9740;BME280;4909;42.680;26.324;2023-10-09T12:38:03;99231.63;;;17.30;37.60
9740;BME280;4909;42.680;26.324;2023-10-09T12:40:34;99185.09;;;17.58;39.30
9740;BME280;4909;42.680;26.324;2023-10-09T12:43:03;99230.59;;;18.02;42.62
9740;BME280;4909;42.680;26.324;2023-10-09T12:45:33;99228.91;;;18.40;40.75
9740;BME280;4909;42.680;26.324;2023-10-09T12:48:01;99219.44;;;18.61;40.88
9740;BME280;4909;42.680;26.324;2023-10-09T12:50:29;99197.31;;;18.58;39.98
9740;BME280;4909;42.680;26.324;2023-10-09T12:53:00;99222.50;;;18.82;38.74
9740;BME280;4909;42.680;26.324;2023-10-09T12:55:35;99224.44;;;18.93;40.30
9740;BME280;4909;42.680;26.324;2023-10-09T12:58:07;99211.13;;;18.91;34.30
9740;BME280;4909;42.680;26.324;2023-10-09T13:00:35;99174.13;;;18.16;34.23
9740;BME280;4909;42.680;26.324;2023-10-09T13:03:05;99184.78;;;18.17;35.38
9740;BME280;4909;42.680;26.324;2023-10-09T13:05:43;99196.06;;;18.10;35.20
9740;BME280;4909;42.680;26.324;2023-10-09T13:08:18;99190.22;;;18.03;35.69
9740;BME280;4909;42.680;26.324;2023-10-09T13:10:47;99184.47;;;18.22;35.13
9740;BME280;4909;42.680;26.324;2023-10-09T13:13:22;99197.25;;;18.18;35.80
9740;BME280;4909;42.680;26.324;2023-10-09T13:15:48;99187.25;;;18.47;40.67
9740;BME280;4909;42.680;26.324;2023-10-09T13:18:15;99169.06;;;18.51;36.09
9740;BME280;4909;42.680;26.324;2023-10-09T13:20:42;99173.47;;;18.39;35.04
9740;BME280;4909;42.680;26.324;2023-10-09T13:23:10;99164.69;;;18.10;36.30
9740;BME280;4909;42.680;26.324;2023-10-09T13:25:40;99157.72;;;17.94;36.21
9740;BME280;4909;42.680;26.324;2023-10-09T13:28:07;99168.88;;;17.88;36.65
9740;BME280;4909;42.680;26.324;2023-10-09T13:30:37;99148.84;;;17.79;39.61
9740;BME280;4909;42.680;26.324;2023-10-09T13:33:15;99164.31;;;18.42;40.80
9740;BME280;4909;42.680;26.324;2023-10-09T13:35:47;99136.50;;;18.16;38.51
9740;BME280;4909;42.680;26.324;2023-10-09T13:38:16;99127.31;;;18.20;41.24
9740;BME280;4909;42.680;26.324;2023-10-09T13:40:43;99136.38;;;18.44;36.98
9740;BME280;4909;42.680;26.324;2023-10-09T13:43:10;99133.78;;;18.43;37.05
9740;BME280;4909;42.680;26.324;2023-10-09T13:45:43;99131.41;;;18.38;35.49
9740;BME280;4909;42.680;26.324;2023-10-09T13:48:15;99132.69;;;18.33;35.57